Flight Track Log - Related Links

Times and Time Zones

All times are in EDT time to prevent confusion due to time zone crossing. See the UAL4401 flight status page for this flight to view local times or setup timezone preferences in your user account.

Time Position Orientation Groundspeed Altitude Reporting Facility
EDT Latitude Longitude Course Direction KTS MPH feet Rate Location/Type
Sun 08:39:00 PM 29.9098 -94.7836 95° East  Level FlightAware Approximate
Sun 08:40:00 PM 29.8976 -94.6452 97° East  Level FlightAware Approximate
Sun 08:41:00 PM 29.8824 -94.5072 97° East  Level FlightAware Approximate
Sun 08:42:00 PM 29.8670 -94.3692 97° East  Level FlightAware Approximate
Sun 08:43:00 PM 29.8500 -94.2354 90° East  Level FlightAware Approximate
Sun 08:44:00 PM 29.8500 -94.0963 90° East  Level FlightAware Approximate
Sun 08:45:00 PM 29.8607 -93.9583 81° East  Level FlightAware Approximate
Sun 08:46:00 PM 29.8725 -93.8202 82° East  Level FlightAware Approximate
Sun 08:47:00 PM 29.8833 -93.6820 90° East  Level FlightAware Approximate
Sun 08:48:00 PM 29.8959 -93.5439 82° East  Level FlightAware Approximate
Sun 08:49:00 PM 29.9121 -93.4061 82° East  Level FlightAware Approximate
Sun 08:50:00 PM 29.9195 -93.2676 78° East  Level FlightAware Approximate
Sun 08:51:00 PM 29.9443 -93.1314 78° East  Level FlightAware Approximate
Sun 08:52:00 PM 29.9589 -92.9934 84° East  Level FlightAware Approximate
Sun 08:53:00 PM 29.9667 -92.8546 90° East  Level FlightAware Approximate
Sun 08:54:00 PM 29.9739 -92.7161 81° East  Level FlightAware Approximate
Sun 08:55:00 PM 29.9874 -92.5780 85° East  Level FlightAware Approximate
Sun 08:56:00 PM 29.9976 -92.4392 85° East  Level FlightAware Approximate
Sun 08:57:00 PM 30.0076 -92.3004 85° East  Level FlightAware Approximate
Sun 08:58:00 PM 30.0174 -92.1616 85° East  Level FlightAware Approximate
Sun 08:59:00 PM 30.0271 -92.0228 85° East  Level FlightAware Approximate
Sun 09:00:00 PM 30.0367 -91.8839 85° East  Level FlightAware Approximate
Sun 09:01:00 PM 30.0461 -91.7450 85° East  Level FlightAware Approximate
Sun 09:02:00 PM 30.0553 -91.6061 86° East  Level FlightAware Approximate
Sun 09:03:00 PM 30.0645 -91.4672 86° East  Level FlightAware Approximate
Sun 09:04:00 PM 30.0741 -91.3283 85° East  Level FlightAware Approximate
Sun 09:05:00 PM 30.0837 -91.1893 85° East  Level FlightAware Approximate
Sun 09:06:00 PM 30.0932 -91.0504 85° East  Level FlightAware Approximate
Sun 09:07:00 PM 30.1093 -90.9128 74° East  Level FlightAware Approximate
Sun 09:08:00 PM 30.1429 -90.7789 74° East  Level FlightAware Approximate
Sun 09:09:00 PM 30.1763 -90.6449 74° East  Level FlightAware Approximate
Sun 09:10:00 PM 30.2098 -90.5108 74° East  Level FlightAware Approximate
Sun 09:11:00 PM 30.2432 -90.3767 74° East  Level FlightAware Approximate
Sun 09:12:00 PM 30.2764 -90.2425 74° East  Level FlightAware Approximate
Sun 09:13:00 PM 30.3095 -90.1082 74° East  Level FlightAware Approximate
Sun 09:14:00 PM 30.3425 -89.9738 74° East  Level FlightAware Approximate
Sun 09:15:00 PM 30.3753 -89.8393 74° East  Level FlightAware Approximate
Sun 09:16:00 PM 30.4080 -89.7047 74° East  Level FlightAware Approximate
Sun 09:17:00 PM 30.4403 -89.5700 75° East  Level FlightAware Approximate
Sun 09:18:00 PM 30.4715 -89.4349 75° East  Level FlightAware Approximate
Sun 09:19:00 PM 30.5027 -89.2996 75° East  Level FlightAware Approximate
Sun 09:20:00 PM 30.5336 -89.1643 75° East  Level FlightAware Approximate
Sun 09:21:00 PM 30.5645 -89.0290 75° East  Level FlightAware Approximate
Sun 09:22:00 PM 30.5951 -88.8935 75° East  Level FlightAware Approximate
Sun 09:23:00 PM 30.6257 -88.7579 75° East  Level FlightAware Approximate
Sun 09:24:00 PM 30.6561 -88.6223 75° East  Level FlightAware Approximate
Sun 09:25:00 PM 30.6864 -88.4865 75° East  Level FlightAware Approximate
Sun 09:26:00 PM 30.7165 -88.3507 76° East  Level FlightAware Approximate
Sun 09:27:00 PM 30.7959 -88.2452 49° Northeast  Level FlightAware Approximate
Sun 09:28:00 PM 30.8755 -88.1397 49° Northeast  Level FlightAware Approximate
Sun 09:29:00 PM 30.9550 -88.0340 49° Northeast  Level FlightAware Approximate
Sun 09:30:00 PM 31.0344 -87.9281 49° Northeast  Level FlightAware Approximate
Sun 09:31:00 PM 31.1137 -87.8220 49° Northeast  Level FlightAware Approximate
Sun 09:32:00 PM 31.1929 -87.7158 49° Northeast  Level FlightAware Approximate
Sun 09:33:00 PM 31.2717 -87.6090 52° Northeast  Level FlightAware Approximate
Sun 09:34:00 PM 31.3468 -87.4986 49° Northeast  Level FlightAware Approximate
Sun 09:35:00 PM 31.4262 -87.3923 49° Northeast  Level FlightAware Approximate
Sun 09:36:00 PM 31.5055 -87.2857 49° Northeast  Level FlightAware Approximate
Sun 09:37:00 PM 31.5847 -87.1790 49° Northeast  Level FlightAware Approximate
Sun 09:38:00 PM 31.6638 -87.0721 49° Northeast  Level FlightAware Approximate
Sun 09:39:00 PM 31.7429 -86.9651 49° Northeast  Level FlightAware Approximate
Sun 09:40:00 PM 31.8218 -86.8578 49° Northeast  Level FlightAware Approximate
Sun 09:41:00 PM 31.9007 -86.7504 49° Northeast  Level FlightAware Approximate
Sun 09:42:00 PM 31.9794 -86.6427 49° Northeast  Level FlightAware Approximate
Sun 09:43:00 PM 32.0581 -86.5349 49° Northeast  Level FlightAware Approximate
Sun 09:44:00 PM 32.1367 -86.4269 49° Northeast  Level FlightAware Approximate
Sun 09:45:00 PM 32.2151 -86.3188 49° Northeast  Level FlightAware Approximate
Sun 09:46:00 PM 32.2899 -86.2068 52° Northeast  Level FlightAware Approximate
Sun 09:47:00 PM 32.3647 -86.0949 52° Northeast  Level FlightAware Approximate
Sun 09:48:00 PM 32.4395 -85.9828 52° Northeast  Level FlightAware Approximate
Sun 09:49:00 PM 32.5142 -85.8706 52° Northeast  Level FlightAware Approximate
Sun 09:50:00 PM 32.5888 -85.7582 52° Northeast  Level FlightAware Approximate
Sun 09:51:00 PM 32.6633 -85.6456 52° Northeast  Level FlightAware Approximate
Sun 09:52:00 PM 32.7377 -85.5328 52° Northeast  Level FlightAware Approximate
Sun 09:53:00 PM 32.8120 -85.4198 52° Northeast  Level FlightAware Approximate
Sun 09:54:00 PM 32.8862 -85.3067 52° Northeast  Level FlightAware Approximate
Sun 09:55:00 PM 32.9603 -85.1933 52° Northeast  Level FlightAware Approximate
Sun 09:56:00 PM 33.0343 -85.0798 52° Northeast  Level FlightAware Approximate
Sun 09:57:00 PM 33.1082 -84.9660 52° Northeast  Level FlightAware Approximate
Sun 09:58:00 PM 33.1820 -84.8521 52° Northeast  Level FlightAware Approximate
Sun 09:59:00 PM 33.2594 -84.7416 50° Northeast  Level FlightAware Approximate
Sun 10:00:00 PM 33.3369 -84.6310 50° Northeast  Level FlightAware Approximate
Sun 10:01:00 PM 33.4142 -84.5202 50° Northeast  Level FlightAware Approximate
Sun 10:02:00 PM 33.4864 -84.4044 53° Northeast  Level FlightAware Approximate
Sun 10:03:00 PM 33.5583 -84.2882 53° Northeast  Level FlightAware Approximate
Sun 10:04:00 PM 33.6301 -84.1719 53° Northeast  Level FlightAware Approximate
Sun 10:05:00 PM 33.7027 -84.0562 53° Northeast  Level FlightAware Approximate
Sun 10:06:00 PM 33.7752 -83.9403 53° Northeast  Level FlightAware Approximate
Sun 10:07:00 PM 33.8476 -83.8242 53° Northeast  Level FlightAware Approximate
Sun 10:08:00 PM 33.9197 -83.7077 53° Northeast  Level FlightAware Approximate
Sun 10:09:00 PM 33.9915 -83.5910 53° Northeast  Level FlightAware Approximate
Sun 10:10:00 PM 34.0648 -83.4754 52° Northeast  Level FlightAware Approximate
Sun 10:11:00 PM 34.1389 -83.3605 52° Northeast  Level FlightAware Approximate
Sun 10:12:00 PM 34.2129 -83.2454 52° Northeast  Level FlightAware Approximate
Sun 10:13:00 PM 34.2867 -83.1300 52° Northeast  Level FlightAware Approximate
Sun 10:14:00 PM 34.3605 -83.0145 52° Northeast  Level FlightAware Approximate
Sun 10:15:00 PM 34.4341 -82.8987 53° Northeast  Level FlightAware Approximate
Sun 10:16:00 PM 34.5064 -82.7816 53° Northeast  Level FlightAware Approximate
Sun 10:17:00 PM 34.5786 -82.6644 53° Northeast  Level FlightAware Approximate
Sun 10:18:00 PM 34.6507 -82.5469 53° Northeast  Level FlightAware Approximate
Sun 10:19:00 PM 34.7227 -82.4292 53° Northeast  Level FlightAware Approximate
Sun 10:20:00 PM 34.7945 -82.3113 53° Northeast  Level FlightAware Approximate
Sun 10:21:00 PM 34.8663 -82.1932 53° Northeast  Level FlightAware Approximate
Sun 10:22:00 PM 34.9379 -82.0749 54° Northeast  Level FlightAware Approximate
Sun 10:23:00 PM 35.0094 -81.9564 54° Northeast  Level FlightAware Approximate
Sun 10:24:00 PM 35.0754 -81.8332 58° Northeast  Level FlightAware Approximate
Sun 10:25:00 PM 35.1385 -81.7076 58° Northeast  Level FlightAware Approximate
Sun 10:26:00 PM 35.2014 -81.5817 58° Northeast  Level FlightAware Approximate
Sun 10:27:00 PM 35.2643 -81.4557 59° Northeast  Level FlightAware Approximate
Sun 10:28:00 PM 35.3270 -81.3295 59° Northeast  Level FlightAware Approximate
Sun 10:29:00 PM 35.3929 -81.2057 57° Northeast  Level FlightAware Approximate
Sun 10:30:00 PM 35.4591 -81.0819 57° Northeast  Level FlightAware Approximate
Sun 10:31:00 PM 35.5251 -80.9580 57° Northeast  Level FlightAware Approximate
Sun 10:32:00 PM 35.5910 -80.8339 57° Northeast  Level FlightAware Approximate
Sun 10:33:00 PM 35.6568 -80.7095 57° Northeast  Level FlightAware Approximate
Sun 10:34:00 PM 35.7225 -80.5850 57° Northeast  Level FlightAware Approximate
Sun 10:35:00 PM 35.7880 -80.4602 57° Northeast  Level FlightAware Approximate
Sun 10:36:00 PM 35.8535 -80.3353 57° Northeast  Level FlightAware Approximate
Sun 10:37:00 PM 35.9187 -80.2101 57° Northeast  Level FlightAware Approximate
Sun 10:38:00 PM 35.9808 -80.0824 61° Northeast  Level FlightAware Approximate
Sun 10:39:00 PM 36.0414 -79.9538 52° Northeast  Level FlightAware Approximate
Sun 10:40:00 PM 36.1152 -79.8357 52° Northeast  Level FlightAware Approximate
Sun 10:41:00 PM 36.1839 -79.7130 55° Northeast  Level FlightAware Approximate
Sun 10:42:00 PM 36.2523 -79.5899 55° Northeast  Level FlightAware Approximate
Sun 10:43:00 PM 36.3207 -79.4666 55° Northeast  Level FlightAware Approximate
Sun 10:44:00 PM 36.3874 -79.3419 58° Northeast  Level FlightAware Approximate
Sun 10:45:00 PM 36.4594 -79.2326 56° Northeast  Level FlightAware Approximate
Sun 10:46:00 PM 36.5265 -79.1079 56° Northeast  Level FlightAware Approximate
Sun 10:47:00 PM 36.5934 -78.9830 56° Northeast  Level FlightAware Approximate
Sun 10:48:00 PM 36.6603 -78.8579 56° Northeast  Level FlightAware Approximate
Sun 10:49:00 PM 36.7258 -78.7317 58° Northeast  Level FlightAware Approximate
Sun 10:50:00 PM 36.7902 -78.6044 55° Northeast  Level FlightAware Approximate
Sun 10:51:00 PM 36.8590 -78.4808 55° Northeast  Level FlightAware Approximate
Sun 10:52:00 PM 36.9278 -78.3568 55° Northeast  Level FlightAware Approximate
Sun 10:53:00 PM 37.0028 -78.2398 53° Northeast  Level FlightAware Approximate
Sun 10:54:00 PM 37.0972 -78.1477 34° Northeast  Level FlightAware Approximate
Sun 10:55:00 PM 37.1986 -78.0658 32° Northeast  Level FlightAware Approximate
Sun 10:56:00 PM 37.3010 -77.9859 32° Northeast  Level FlightAware Approximate
Sun 10:57:00 PM 37.4034 -77.9057 32° Northeast  Level FlightAware Approximate
Sun 10:58:00 PM 37.5057 -77.8253 32° Northeast  Level FlightAware Approximate
Sun 10:59:00 PM 37.6158 -77.7634 23° Northeast  Level FlightAware Approximate
Sun 11:00:00 PM 37.7267 -77.7036 23° Northeast  Level FlightAware Approximate
Sun 11:01:00 PM 37.8337 -77.6333 North  Level FlightAware Approximate
Sun 11:02:00 PM 37.9417 -77.5716 25° Northeast  Level FlightAware Approximate
Sun 11:03:00 PM 38.0534 -77.5141 31° Northeast  Level FlightAware Approximate

Login

Don't have an account? Register now (free) for customized features, flight alerts, and more!